Hovedside
METAR-TAF:

METAR-TAF

Lufthavner :

Sankt Michel, Finland

Sankt Michel lufthavn

breddegrad: 61-44N, lengdegrad: 027-18E, høyde over havet: 138 m

Gjeldene værobservasjon

Denne rapporten ble laget for 32 minutter siden, klokken 13:50 UTC
Vind 8 kt fra Øst-nordøst, skiftende mellom Nord og Øst-sørøst
Temperatur -5°C
Luftfuktighet 79%
Trykk 1018 hPa
Sikt 10 km eller mer
Spredte skyer i en høyde av 1100 ft
Brutte skyer i en høyde av 5300 ft

METAR: EFMI 221350Z AUTO 06008KT 360V110 9999 SCT011 BKN053 M05/M08 Q1018

Tid: 16:22 (14:22 UTC)


TAF: fraværende

Værobservasjoner og værvarsel for over 4000 flyplasser (METAR- og TAF-rapporter).

Tilgjengelige stasjoner er representert av de røde og gule prikkene på kartet.

Hold musepekeren over prikken for å se navnet på stasjonen.

Klikk så for å se værobservasjoner og -varsler.

For å forandre kartet kan du klikke på den grønne knappen med svart kryss for å zoome inn, på den grønne knappen med strek for å zoome ut, eller på de grønne pilene for å se tilstøtende kart.


METAR-TAF: